sensor_id;sensor_type;location;lat;lon;timestamp;temperature;humidity
9057;DHT22;4563;54.756;9.400;2023-02-18T00:00:54;9.20;78.90
9057;DHT22;4563;54.756;9.400;2023-02-18T00:03:22;9.20;78.60
9057;DHT22;4563;54.756;9.400;2023-02-18T00:05:50;9.20;78.70
9057;DHT22;4563;54.756;9.400;2023-02-18T00:08:18;9.20;78.50
9057;DHT22;4563;54.756;9.400;2023-02-18T00:10:45;9.20;78.80
9057;DHT22;4563;54.756;9.400;2023-02-18T00:13:13;9.20;78.60
9057;DHT22;4563;54.756;9.400;2023-02-18T00:15:40;9.20;78.70
9057;DHT22;4563;54.756;9.400;2023-02-18T00:18:07;9.20;78.70
9057;DHT22;4563;54.756;9.400;2023-02-18T00:20:33;9.20;78.70
9057;DHT22;4563;54.756;9.400;2023-02-18T00:23:02;9.20;78.70
9057;DHT22;4563;54.756;9.400;2023-02-18T00:25:29;9.20;78.70
9057;DHT22;4563;54.756;9.400;2023-02-18T00:27:56;9.20;78.60
9057;DHT22;4563;54.756;9.400;2023-02-18T00:30:23;9.20;78.70
9057;DHT22;4563;54.756;9.400;2023-02-18T00:32:50;9.10;78.80
9057;DHT22;4563;54.756;9.400;2023-02-18T00:35:16;9.10;78.60
9057;DHT22;4563;54.756;9.400;2023-02-18T00:37:43;9.10;78.60
9057;DHT22;4563;54.756;9.400;2023-02-18T00:40:12;9.10;78.60
9057;DHT22;4563;54.756;9.400;2023-02-18T00:42:39;9.10;78.60
9057;DHT22;4563;54.756;9.400;2023-02-18T00:45:06;9.10;78.70
9057;DHT22;4563;54.756;9.400;2023-02-18T00:47:33;9.10;78.70
9057;DHT22;4563;54.756;9.400;2023-02-18T00:50:00;9.10;78.60
9057;DHT22;4563;54.756;9.400;2023-02-18T00:52:27;9.10;78.70
9057;DHT22;4563;54.756;9.400;2023-02-18T00:54:54;9.10;78.70
9057;DHT22;4563;54.756;9.400;2023-02-18T00:57:22;9.10;78.70
9057;DHT22;4563;54.756;9.400;2023-02-18T00:59:49;9.10;78.70
9057;DHT22;4563;54.756;9.400;2023-02-18T01:02:15;9.10;78.60
9057;DHT22;4563;54.756;9.400;2023-02-18T01:04:42;9.00;78.60
9057;DHT22;4563;54.756;9.400;2023-02-18T01:07:09;9.00;78.80
9057;DHT22;4563;54.756;9.400;2023-02-18T01:09:36;9.00;78.70
9057;DHT22;4563;54.756;9.400;2023-02-18T01:12:03;9.00;78.70
9057;DHT22;4563;54.756;9.400;2023-02-18T01:14:31;9.00;78.80
9057;DHT22;4563;54.756;9.400;2023-02-18T01:16:58;9.00;79.50
9057;DHT22;4563;54.756;9.400;2023-02-18T01:19:25;9.00;78.90
9057;DHT22;4563;54.756;9.400;2023-02-18T01:21:52;9.00;78.80
9057;DHT22;4563;54.756;9.400;2023-02-18T01:24:19;9.00;78.80
9057;DHT22;4563;54.756;9.400;2023-02-18T01:26:46;9.00;78.90
9057;DHT22;4563;54.756;9.400;2023-02-18T01:29:12;9.00;78.80
9057;DHT22;4563;54.756;9.400;2023-02-18T01:31:41;9.00;78.80
9057;DHT22;4563;54.756;9.400;2023-02-18T01:34:07;9.00;78.80
9057;DHT22;4563;54.756;9.400;2023-02-18T01:36:34;9.00;79.00
9057;DHT22;4563;54.756;9.400;2023-02-18T01:39:01;9.00;79.00
9057;DHT22;4563;54.756;9.400;2023-02-18T01:41:28;9.00;79.00
9057;DHT22;4563;54.756;9.400;2023-02-18T01:44:12;9.00;78.90
9057;DHT22;4563;54.756;9.400;2023-02-18T01:46:38;9.00;79.30
9057;DHT22;4563;54.756;9.400;2023-02-18T01:49:07;9.00;78.90
9057;DHT22;4563;54.756;9.400;2023-02-18T01:51:39;9.00;79.10
9057;DHT22;4563;54.756;9.400;2023-02-18T01:54:09;9.00;79.20
9057;DHT22;4563;54.756;9.400;2023-02-18T01:56:40;9.00;79.10
9057;DHT22;4563;54.756;9.400;2023-02-18T01:59:12;9.00;79.10
9057;DHT22;4563;54.756;9.400;2023-02-18T02:01:41;9.00;79.10
9057;DHT22;4563;54.756;9.400;2023-02-18T02:04:11;9.00;79.00
9057;DHT22;4563;54.756;9.400;2023-02-18T02:06:38;9.00;79.10
9057;DHT22;4563;54.756;9.400;2023-02-18T02:09:07;9.00;79.10
9057;DHT22;4563;54.756;9.400;2023-02-18T02:14:41;9.00;80.00
9057;DHT22;4563;54.756;9.400;2023-02-18T02:17:14;9.00;79.10
9057;DHT22;4563;54.756;9.400;2023-02-18T02:20:12;9.00;79.10
9057;DHT22;4563;54.756;9.400;2023-02-18T02:23:14;9.00;79.60
9057;DHT22;4563;54.756;9.400;2023-02-18T02:26:01;9.00;80.10
9057;DHT22;4563;54.756;9.400;2023-02-18T02:34:53;9.00;79.50
9057;DHT22;4563;54.756;9.400;2023-02-18T02:37:26;9.00;79.50
9057;DHT22;4563;54.756;9.400;2023-02-18T02:40:03;9.00;79.30
9057;DHT22;4563;54.756;9.400;2023-02-18T02:42:40;9.00;79.30
9057;DHT22;4563;54.756;9.400;2023-02-18T02:45:18;9.00;79.20
9057;DHT22;4563;54.756;9.400;2023-02-18T02:47:51;9.00;79.10
9057;DHT22;4563;54.756;9.400;2023-02-18T02:50:26;9.00;78.90
9057;DHT22;4563;54.756;9.400;2023-02-18T02:52:59;9.00;79.00
9057;DHT22;4563;54.756;9.400;2023-02-18T02:55:27;9.00;78.90
9057;DHT22;4563;54.756;9.400;2023-02-18T02:57:55;9.00;78.90
9057;DHT22;4563;54.756;9.400;2023-02-18T03:00:28;9.00;78.80
9057;DHT22;4563;54.756;9.400;2023-02-18T03:03:24;9.00;78.80
9057;DHT22;4563;54.756;9.400;2023-02-18T03:06:16;9.00;79.20
9057;DHT22;4563;54.756;9.400;2023-02-18T03:08:54;9.00;79.10
9057;DHT22;4563;54.756;9.400;2023-02-18T03:11:28;9.00;79.00
9057;DHT22;4563;54.756;9.400;2023-02-18T03:14:05;8.90;78.80
9057;DHT22;4563;54.756;9.400;2023-02-18T03:16:44;8.90;78.90
9057;DHT22;4563;54.756;9.400;2023-02-18T03:19:19;8.90;78.90
9057;DHT22;4563;54.756;9.400;2023-02-18T03:21:52;9.00;79.00
9057;DHT22;4563;54.756;9.400;2023-02-18T03:24:24;8.90;78.90
9057;DHT22;4563;54.756;9.400;2023-02-18T03:26:55;8.90;78.90
9057;DHT22;4563;54.756;9.400;2023-02-18T03:29:22;8.90;78.90
9057;DHT22;4563;54.756;9.400;2023-02-18T03:31:54;8.90;78.90
9057;DHT22;4563;54.756;9.400;2023-02-18T03:34:25;8.90;78.90
9057;DHT22;4563;54.756;9.400;2023-02-18T03:36:56;8.90;79.00
9057;DHT22;4563;54.756;9.400;2023-02-18T03:39:25;8.90;79.00
9057;DHT22;4563;54.756;9.400;2023-02-18T03:41:53;8.90;78.90
9057;DHT22;4563;54.756;9.400;2023-02-18T03:44:19;8.90;79.00
9057;DHT22;4563;54.756;9.400;2023-02-18T03:46:46;8.80;78.90
9057;DHT22;4563;54.756;9.400;2023-02-18T03:49:14;8.90;79.00
9057;DHT22;4563;54.756;9.400;2023-02-18T03:51:41;8.90;79.00
9057;DHT22;4563;54.756;9.400;2023-02-18T03:54:10;8.90;79.10
9057;DHT22;4563;54.756;9.400;2023-02-18T03:56:38;8.90;79.10
9057;DHT22;4563;54.756;9.400;2023-02-18T03:59:05;8.90;79.10
9057;DHT22;4563;54.756;9.400;2023-02-18T04:01:32;8.90;79.10
9057;DHT22;4563;54.756;9.400;2023-02-18T04:04:00;8.90;79.30
9057;DHT22;4563;54.756;9.400;2023-02-18T04:06:27;8.90;79.20
9057;DHT22;4563;54.756;9.400;2023-02-18T04:08:54;8.90;79.20
9057;DHT22;4563;54.756;9.400;2023-02-18T04:11:22;8.90;79.20
9057;DHT22;4563;54.756;9.400;2023-02-18T04:13:49;8.90;79.20
9057;DHT22;4563;54.756;9.400;2023-02-18T04:16:16;8.90;79.30
9057;DHT22;4563;54.756;9.400;2023-02-18T04:18:43;8.90;79.30
9057;DHT22;4563;54.756;9.400;2023-02-18T04:21:10;8.90;79.30
9057;DHT22;4563;54.756;9.400;2023-02-18T04:23:36;8.90;79.30
9057;DHT22;4563;54.756;9.400;2023-02-18T04:26:03;8.90;79.40
9057;DHT22;4563;54.756;9.400;2023-02-18T04:28:32;8.90;79.50
9057;DHT22;4563;54.756;9.400;2023-02-18T04:30:58;8.90;79.50
9057;DHT22;4563;54.756;9.400;2023-02-18T04:33:25;8.90;79.50
9057;DHT22;4563;54.756;9.400;2023-02-18T04:35:52;8.90;79.60
9057;DHT22;4563;54.756;9.400;2023-02-18T04:38:19;8.80;79.60
9057;DHT22;4563;54.756;9.400;2023-02-18T04:40:46;8.90;79.70
9057;DHT22;4563;54.756;9.400;2023-02-18T04:43:12;8.90;79.70
9057;DHT22;4563;54.756;9.400;2023-02-18T04:45:41;8.90;79.80
9057;DHT22;4563;54.756;9.400;2023-02-18T04:48:07;8.90;79.80
9057;DHT22;4563;54.756;9.400;2023-02-18T04:50:34;8.90;79.80
9057;DHT22;4563;54.756;9.400;2023-02-18T04:53:01;8.90;79.90
9057;DHT22;4563;54.756;9.400;2023-02-18T04:55:28;8.90;79.90
9057;DHT22;4563;54.756;9.400;2023-02-18T04:57:55;8.90;80.00
9057;DHT22;4563;54.756;9.400;2023-02-18T05:00:22;8.90;79.90
9057;DHT22;4563;54.756;9.400;2023-02-18T05:02:50;8.90;80.00
9057;DHT22;4563;54.756;9.400;2023-02-18T05:05:17;8.90;80.00
9057;DHT22;4563;54.756;9.400;2023-02-18T05:07:44;8.90;80.00
9057;DHT22;4563;54.756;9.400;2023-02-18T05:10:14;8.90;80.00
9057;DHT22;4563;54.756;9.400;2023-02-18T05:12:41;8.90;80.00
9057;DHT22;4563;54.756;9.400;2023-02-18T05:15:09;8.90;80.10
9057;DHT22;4563;54.756;9.400;2023-02-18T05:17:36;8.90;80.10
9057;DHT22;4563;54.756;9.400;2023-02-18T05:20:05;8.90;80.10
9057;DHT22;4563;54.756;9.400;2023-02-18T05:22:32;8.90;80.10
9057;DHT22;4563;54.756;9.400;2023-02-18T05:24:59;8.90;80.10
9057;DHT22;4563;54.756;9.400;2023-02-18T05:27:26;8.90;80.10
9057;DHT22;4563;54.756;9.400;2023-02-18T05:29:53;9.00;80.20
9057;DHT22;4563;54.756;9.400;2023-02-18T05:32:19;9.00;80.20
9057;DHT22;4563;54.756;9.400;2023-02-18T05:34:46;9.00;80.20
9057;DHT22;4563;54.756;9.400;2023-02-18T05:37:14;9.00;80.20
9057;DHT22;4563;54.756;9.400;2023-02-18T05:39:42;9.00;80.20
9057;DHT22;4563;54.756;9.400;2023-02-18T05:42:09;9.00;80.20
9057;DHT22;4563;54.756;9.400;2023-02-18T05:44:36;9.00;80.20
9057;DHT22;4563;54.756;9.400;2023-02-18T05:47:06;9.00;80.20
9057;DHT22;4563;54.756;9.400;2023-02-18T05:49:34;9.00;80.20
9057;DHT22;4563;54.756;9.400;2023-02-18T05:52:01;9.00;80.20
9057;DHT22;4563;54.756;9.400;2023-02-18T05:54:29;8.90;80.10
9057;DHT22;4563;54.756;9.400;2023-02-18T05:56:57;9.00;80.20
9057;DHT22;4563;54.756;9.400;2023-02-18T05:59:24;9.00;80.20
9057;DHT22;4563;54.756;9.400;2023-02-18T06:01:50;9.00;80.30
9057;DHT22;4563;54.756;9.400;2023-02-18T06:04:17;9.00;80.30
9057;DHT22;4563;54.756;9.400;2023-02-18T06:06:44;9.00;80.30
9057;DHT22;4563;54.756;9.400;2023-02-18T06:09:11;9.00;80.30
9057;DHT22;4563;54.756;9.400;2023-02-18T06:11:39;9.00;80.30
9057;DHT22;4563;54.756;9.400;2023-02-18T06:14:06;9.00;80.40
9057;DHT22;4563;54.756;9.400;2023-02-18T06:16:33;9.00;80.40
9057;DHT22;4563;54.756;9.400;2023-02-18T06:19:00;9.00;80.40
9057;DHT22;4563;54.756;9.400;2023-02-18T06:21:27;9.00;80.40
9057;DHT22;4563;54.756;9.400;2023-02-18T06:23:53;9.00;80.50
9057;DHT22;4563;54.756;9.400;2023-02-18T06:26:20;9.00;80.50
9057;DHT22;4563;54.756;9.400;2023-02-18T06:28:48;9.00;80.50
9057;DHT22;4563;54.756;9.400;2023-02-18T06:31:15;9.00;80.50
9057;DHT22;4563;54.756;9.400;2023-02-18T06:33:42;9.00;80.60
9057;DHT22;4563;54.756;9.400;2023-02-18T06:36:11;9.00;80.60
9057;DHT22;4563;54.756;9.400;2023-02-18T06:38:39;9.00;80.70
9057;DHT22;4563;54.756;9.400;2023-02-18T06:41:06;9.00;80.70
9057;DHT22;4563;54.756;9.400;2023-02-18T06:43:33;9.00;80.70
9057;DHT22;4563;54.756;9.400;2023-02-18T06:46:02;9.00;80.70
9057;DHT22;4563;54.756;9.400;2023-02-18T06:48:29;9.00;80.80
9057;DHT22;4563;54.756;9.400;2023-02-18T06:50:56;9.00;80.80
9057;DHT22;4563;54.756;9.400;2023-02-18T06:53:23;9.00;80.80
9057;DHT22;4563;54.756;9.400;2023-02-18T06:55:50;9.00;80.80
9057;DHT22;4563;54.756;9.400;2023-02-18T06:58:17;9.00;80.90
9057;DHT22;4563;54.756;9.400;2023-02-18T07:00:44;9.00;81.00
9057;DHT22;4563;54.756;9.400;2023-02-18T07:03:13;9.00;80.90
9057;DHT22;4563;54.756;9.400;2023-02-18T07:05:40;9.00;81.00
9057;DHT22;4563;54.756;9.400;2023-02-18T07:08:07;9.00;81.00
9057;DHT22;4563;54.756;9.400;2023-02-18T07:10:34;9.00;81.00
9057;DHT22;4563;54.756;9.400;2023-02-18T07:13:01;9.00;81.00
9057;DHT22;4563;54.756;9.400;2023-02-18T07:15:28;8.90;80.90
9057;DHT22;4563;54.756;9.400;2023-02-18T07:17:55;9.00;81.00
9057;DHT22;4563;54.756;9.400;2023-02-18T07:20:24;8.90;80.90
9057;DHT22;4563;54.756;9.400;2023-02-18T07:22:51;8.90;80.90
9057;DHT22;4563;54.756;9.400;2023-02-18T07:25:18;8.90;80.90
9057;DHT22;4563;54.756;9.400;2023-02-18T07:27:44;8.90;80.90
9057;DHT22;4563;54.756;9.400;2023-02-18T07:30:12;8.90;80.90
9057;DHT22;4563;54.756;9.400;2023-02-18T07:32:39;8.90;80.90
9057;DHT22;4563;54.756;9.400;2023-02-18T07:35:07;8.90;80.90
9057;DHT22;4563;54.756;9.400;2023-02-18T07:37:35;8.80;80.80
9057;DHT22;4563;54.756;9.400;2023-02-18T07:40:02;8.80;80.90
9057;DHT22;4563;54.756;9.400;2023-02-18T07:42:29;8.80;81.00
9057;DHT22;4563;54.756;9.400;2023-02-18T07:44:55;8.80;81.00
9057;DHT22;4563;54.756;9.400;2023-02-18T07:47:22;8.80;81.00
9057;DHT22;4563;54.756;9.400;2023-02-18T07:49:49;8.80;80.90
9057;DHT22;4563;54.756;9.400;2023-02-18T07:52:16;8.70;80.90
9057;DHT22;4563;54.756;9.400;2023-02-18T07:54:44;8.70;81.00
9057;DHT22;4563;54.756;9.400;2023-02-18T07:57:11;8.70;81.70
9057;DHT22;4563;54.756;9.400;2023-02-18T07:59:37;8.70;81.00
9057;DHT22;4563;54.756;9.400;2023-02-18T08:02:04;8.70;81.10
9057;DHT22;4563;54.756;9.400;2023-02-18T08:04:35;8.70;81.20
9057;DHT22;4563;54.756;9.400;2023-02-18T08:07:02;8.70;81.20
9057;DHT22;4563;54.756;9.400;2023-02-18T08:09:28;8.60;81.20
9057;DHT22;4563;54.756;9.400;2023-02-18T08:11:56;8.70;81.20
9057;DHT22;4563;54.756;9.400;2023-02-18T08:14:23;8.60;81.10
9057;DHT22;4563;54.756;9.400;2023-02-18T08:16:50;8.60;81.10
9057;DHT22;4563;54.756;9.400;2023-02-18T08:19:17;8.70;81.30
9057;DHT22;4563;54.756;9.400;2023-02-18T08:21:44;8.60;81.20
9057;DHT22;4563;54.756;9.400;2023-02-18T08:24:11;8.60;81.20
9057;DHT22;4563;54.756;9.400;2023-02-18T08:26:38;8.60;81.20
9057;DHT22;4563;54.756;9.400;2023-02-18T08:29:06;8.60;81.20
9057;DHT22;4563;54.756;9.400;2023-02-18T08:31:33;8.60;81.20
9057;DHT22;4563;54.756;9.400;2023-02-18T08:34:00;8.60;81.20
9057;DHT22;4563;54.756;9.400;2023-02-18T08:36:28;8.60;81.30
9057;DHT22;4563;54.756;9.400;2023-02-18T08:38:55;8.60;81.30
9057;DHT22;4563;54.756;9.400;2023-02-18T08:41:22;8.60;81.30
9057;DHT22;4563;54.756;9.400;2023-02-18T08:43:49;8.60;81.40
9057;DHT22;4563;54.756;9.400;2023-02-18T08:46:17;8.60;81.30
9057;DHT22;4563;54.756;9.400;2023-02-18T08:48:44;8.60;81.40
9057;DHT22;4563;54.756;9.400;2023-02-18T08:51:15;8.70;81.60
9057;DHT22;4563;54.756;9.400;2023-02-18T08:53:43;8.60;81.50
9057;DHT22;4563;54.756;9.400;2023-02-18T08:56:11;8.60;81.40
9057;DHT22;4563;54.756;9.400;2023-02-18T08:58:39;8.70;81.60
9057;DHT22;4563;54.756;9.400;2023-02-18T09:01:08;8.70;81.50
9057;DHT22;4563;54.756;9.400;2023-02-18T09:03:36;8.70;81.60
9057;DHT22;4563;54.756;9.400;2023-02-18T09:06:04;8.70;81.60
9057;DHT22;4563;54.756;9.400;2023-02-18T09:08:31;8.70;81.60
9057;DHT22;4563;54.756;9.400;2023-02-18T09:10:59;8.70;81.60
9057;DHT22;4563;54.756;9.400;2023-02-18T09:13:26;8.70;81.60
9057;DHT22;4563;54.756;9.400;2023-02-18T09:15:58;8.70;81.60
9057;DHT22;4563;54.756;9.400;2023-02-18T09:18:25;8.70;81.60
9057;DHT22;4563;54.756;9.400;2023-02-18T09:20:55;8.70;81.60
9057;DHT22;4563;54.756;9.400;2023-02-18T09:23:22;8.60;81.50
9057;DHT22;4563;54.756;9.400;2023-02-18T09:25:49;8.60;81.50
9057;DHT22;4563;54.756;9.400;2023-02-18T09:28:15;8.70;81.60
9057;DHT22;4563;54.756;9.400;2023-02-18T09:30:42;8.60;81.50
9057;DHT22;4563;54.756;9.400;2023-02-18T09:33:09;8.60;81.50
9057;DHT22;4563;54.756;9.400;2023-02-18T09:35:38;8.70;81.60
9057;DHT22;4563;54.756;9.400;2023-02-18T09:38:06;8.60;81.60
9057;DHT22;4563;54.756;9.400;2023-02-18T09:40:34;8.70;81.70
9057;DHT22;4563;54.756;9.400;2023-02-18T09:43:03;8.60;81.60
9057;DHT22;4563;54.756;9.400;2023-02-18T09:45:30;8.60;81.60
9057;DHT22;4563;54.756;9.400;2023-02-18T09:47:57;8.70;81.70
9057;DHT22;4563;54.756;9.400;2023-02-18T09:50:27;8.70;81.70
9057;DHT22;4563;54.756;9.400;2023-02-18T09:52:57;8.70;81.70
9057;DHT22;4563;54.756;9.400;2023-02-18T09:55:28;8.70;81.70
9057;DHT22;4563;54.756;9.400;2023-02-18T09:57:59;8.70;81.70
9057;DHT22;4563;54.756;9.400;2023-02-18T10:00:30;8.70;81.70
9057;DHT22;4563;54.756;9.400;2023-02-18T10:03:01;8.70;81.70
9057;DHT22;4563;54.756;9.400;2023-02-18T10:05:30;8.70;81.70
9057;DHT22;4563;54.756;9.400;2023-02-18T10:08:01;8.70;81.70
9057;DHT22;4563;54.756;9.400;2023-02-18T10:10:36;8.70;81.80
9057;DHT22;4563;54.756;9.400;2023-02-18T10:13:05;8.70;81.80
9057;DHT22;4563;54.756;9.400;2023-02-18T10:15:36;8.70;81.80
9057;DHT22;4563;54.756;9.400;2023-02-18T10:18:05;8.70;81.80
9057;DHT22;4563;54.756;9.400;2023-02-18T10:20:38;8.70;81.80
9057;DHT22;4563;54.756;9.400;2023-02-18T10:23:05;8.70;81.80
9057;DHT22;4563;54.756;9.400;2023-02-18T10:25:37;8.80;81.90
9057;DHT22;4563;54.756;9.400;2023-02-18T10:28:08;8.80;81.90
9057;DHT22;4563;54.756;9.400;2023-02-18T10:30:40;8.80;82.00
9057;DHT22;4563;54.756;9.400;2023-02-18T10:33:21;8.80;81.90
9057;DHT22;4563;54.756;9.400;2023-02-18T10:35:56;8.80;82.00
9057;DHT22;4563;54.756;9.400;2023-02-18T10:38:32;8.80;82.00
9057;DHT22;4563;54.756;9.400;2023-02-18T10:41:08;8.80;82.00
9057;DHT22;4563;54.756;9.400;2023-02-18T10:43:46;8.80;82.00
9057;DHT22;4563;54.756;9.400;2023-02-18T10:46:21;8.90;82.10
9057;DHT22;4563;54.756;9.400;2023-02-18T10:49:03;8.90;82.00
9057;DHT22;4563;54.756;9.400;2023-02-18T10:51:32;8.90;82.00
9057;DHT22;4563;54.756;9.400;2023-02-18T10:54:00;8.90;82.60
9057;DHT22;4563;54.756;9.400;2023-02-18T10:56:38;9.00;82.00
9057;DHT22;4563;54.756;9.400;2023-02-18T10:59:11;9.00;82.00
9057;DHT22;4563;54.756;9.400;2023-02-18T11:01:39;9.00;81.90
9057;DHT22;4563;54.756;9.400;2023-02-18T11:04:13;9.00;81.90
9057;DHT22;4563;54.756;9.400;2023-02-18T11:06:41;9.00;81.80
9057;DHT22;4563;54.756;9.400;2023-02-18T11:09:24;9.00;81.70
9057;DHT22;4563;54.756;9.400;2023-02-18T11:12:01;9.00;81.70
9057;DHT22;4563;54.756;9.400;2023-02-18T11:14:42;9.00;81.70
9057;DHT22;4563;54.756;9.400;2023-02-18T11:17:16;9.00;81.70
9057;DHT22;4563;54.756;9.400;2023-02-18T11:19:51;9.00;81.60
9057;DHT22;4563;54.756;9.400;2023-02-18T11:22:20;9.00;81.50
9057;DHT22;4563;54.756;9.400;2023-02-18T11:24:47;9.00;81.50
9057;DHT22;4563;54.756;9.400;2023-02-18T11:27:22;8.90;81.30
9057;DHT22;4563;54.756;9.400;2023-02-18T11:29:51;9.00;81.40
9057;DHT22;4563;54.756;9.400;2023-02-18T11:32:20;8.90;81.20
9057;DHT22;4563;54.756;9.400;2023-02-18T11:34:48;8.90;81.20
9057;DHT22;4563;54.756;9.400;2023-02-18T11:37:18;8.90;81.00
9057;DHT22;4563;54.756;9.400;2023-02-18T11:39:48;8.90;80.90
9057;DHT22;4563;54.756;9.400;2023-02-18T11:42:18;8.80;80.80
9057;DHT22;4563;54.756;9.400;2023-02-18T11:44:51;8.80;80.80
9057;DHT22;4563;54.756;9.400;2023-02-18T11:47:21;8.80;80.80
9057;DHT22;4563;54.756;9.400;2023-02-18T11:50:00;8.80;80.90
9057;DHT22;4563;54.756;9.400;2023-02-18T11:52:33;8.70;80.80
9057;DHT22;4563;54.756;9.400;2023-02-18T11:55:01;8.70;80.80
9057;DHT22;4563;54.756;9.400;2023-02-18T11:57:30;8.70;80.70
9057;DHT22;4563;54.756;9.400;2023-02-18T11:59:58;8.70;80.70
9057;DHT22;4563;54.756;9.400;2023-02-18T12:02:30;8.60;80.60
9057;DHT22;4563;54.756;9.400;2023-02-18T12:05:02;8.60;80.60
9057;DHT22;4563;54.756;9.400;2023-02-18T12:07:36;8.60;80.60
9057;DHT22;4563;54.756;9.400;2023-02-18T12:10:11;8.60;80.60
9057;DHT22;4563;54.756;9.400;2023-02-18T12:12:44;8.50;80.50
9057;DHT22;4563;54.756;9.400;2023-02-18T12:15:15;8.50;80.50
9057;DHT22;4563;54.756;9.400;2023-02-18T12:18:10;8.50;80.60
9057;DHT22;4563;54.756;9.400;2023-02-18T12:20:51;8.50;80.80
9057;DHT22;4563;54.756;9.400;2023-02-18T12:23:25;8.40;80.70
9057;DHT22;4563;54.756;9.400;2023-02-18T12:26:03;8.40;80.70
9057;DHT22;4563;54.756;9.400;2023-02-18T12:28:45;8.40;80.70
9057;DHT22;4563;54.756;9.400;2023-02-18T12:31:27;8.40;80.80
9057;DHT22;4563;54.756;9.400;2023-02-18T12:34:07;8.40;80.80
9057;DHT22;4563;54.756;9.400;2023-02-18T12:36:49;8.40;80.80
9057;DHT22;4563;54.756;9.400;2023-02-18T12:39:33;8.30;80.80
9057;DHT22;4563;54.756;9.400;2023-02-18T12:42:12;8.40;80.90
9057;DHT22;4563;54.756;9.400;2023-02-18T12:44:52;8.40;80.90
9057;DHT22;4563;54.756;9.400;2023-02-18T12:47:30;8.40;80.90
9057;DHT22;4563;54.756;9.400;2023-02-18T12:50:28;8.40;81.00
9057;DHT22;4563;54.756;9.400;2023-02-18T12:53:19;8.40;81.10
9057;DHT22;4563;54.756;9.400;2023-02-18T12:55:57;8.40;81.10
9057;DHT22;4563;54.756;9.400;2023-02-18T12:58:35;8.40;81.10
9057;DHT22;4563;54.756;9.400;2023-02-18T13:01:17;8.40;81.00
9057;DHT22;4563;54.756;9.400;2023-02-18T13:04:11;8.40;81.20
9057;DHT22;4563;54.756;9.400;2023-02-18T13:07:00;8.40;81.20
9057;DHT22;4563;54.756;9.400;2023-02-18T13:09:36;8.50;81.50
9057;DHT22;4563;54.756;9.400;2023-02-18T13:12:08;8.50;81.40
9057;DHT22;4563;54.756;9.400;2023-02-18T13:14:48;8.50;81.30
9057;DHT22;4563;54.756;9.400;2023-02-18T13:17:24;8.50;81.30
9057;DHT22;4563;54.756;9.400;2023-02-18T13:19:59;8.50;81.30
9057;DHT22;4563;54.756;9.400;2023-02-18T13:22:29;8.50;81.30
9057;DHT22;4563;54.756;9.400;2023-02-18T13:24:57;8.60;81.30
9057;DHT22;4563;54.756;9.400;2023-02-18T13:27:28;8.60;81.30
9057;DHT22;4563;54.756;9.400;2023-02-18T13:30:07;8.60;81.40
9057;DHT22;4563;54.756;9.400;2023-02-18T13:32:46;8.70;81.50
9057;DHT22;4563;54.756;9.400;2023-02-18T13:35:22;8.70;81.50
9057;DHT22;4563;54.756;9.400;2023-02-18T13:38:11;8.80;81.60
9057;DHT22;4563;54.756;9.400;2023-02-18T13:40:43;8.80;81.70
9057;DHT22;4563;54.756;9.400;2023-02-18T13:43:19;8.80;81.50
9057;DHT22;4563;54.756;9.400;2023-02-18T13:46:02;8.90;81.70
9057;DHT22;4563;54.756;9.400;2023-02-18T13:48:34;8.90;81.80
9057;DHT22;4563;54.756;9.400;2023-02-18T13:51:05;8.90;81.70
9057;DHT22;4563;54.756;9.400;2023-02-18T13:53:36;9.00;81.70
9057;DHT22;4563;54.756;9.400;2023-02-18T13:56:07;9.00;81.70
9057;DHT22;4563;54.756;9.400;2023-02-18T13:58:38;9.10;81.80
9057;DHT22;4563;54.756;9.400;2023-02-18T14:01:15;9.10;81.70
9057;DHT22;4563;54.756;9.400;2023-02-18T14:03:58;9.20;81.90
9057;DHT22;4563;54.756;9.400;2023-02-18T14:06:27;9.20;81.90
9057;DHT22;4563;54.756;9.400;2023-02-18T14:09:34;9.20;81.70
9057;DHT22;4563;54.756;9.400;2023-02-18T14:12:21;9.30;82.00
9057;DHT22;4563;54.756;9.400;2023-02-18T14:14:57;9.40;81.80
9057;DHT22;4563;54.756;9.400;2023-02-18T14:17:40;9.40;81.40
9057;DHT22;4563;54.756;9.400;2023-02-18T14:20:41;9.40;81.40
9057;DHT22;4563;54.756;9.400;2023-02-18T14:23:54;9.50;81.50
9057;DHT22;4563;54.756;9.400;2023-02-18T14:26:29;9.50;81.50
9057;DHT22;4563;54.756;9.400;2023-02-18T14:29:05;9.50;81.40
9057;DHT22;4563;54.756;9.400;2023-02-18T14:31:48;9.50;81.10
9057;DHT22;4563;54.756;9.400;2023-02-18T14:34:38;9.50;81.10
9057;DHT22;4563;54.756;9.400;2023-02-18T14:37:32;9.50;81.10
9057;DHT22;4563;54.756;9.400;2023-02-18T14:40:14;9.50;81.10
9057;DHT22;4563;54.756;9.400;2023-02-18T14:42:48;9.50;81.10
9057;DHT22;4563;54.756;9.400;2023-02-18T14:45:32;9.50;80.90
9057;DHT22;4563;54.756;9.400;2023-02-18T14:48:27;9.50;80.90
9057;DHT22;4563;54.756;9.400;2023-02-18T14:50:58;9.50;81.20
9057;DHT22;4563;54.756;9.400;2023-02-18T14:53:27;9.40;81.00
9057;DHT22;4563;54.756;9.400;2023-02-18T14:55:58;9.50;81.90
9057;DHT22;4563;54.756;9.400;2023-02-18T14:58:29;9.50;81.20
9057;DHT22;4563;54.756;9.400;2023-02-18T15:01:12;9.50;81.30
9057;DHT22;4563;54.756;9.400;2023-02-18T15:03:41;9.40;81.40
9057;DHT22;4563;54.756;9.400;2023-02-18T15:06:25;9.50;82.10
9057;DHT22;4563;54.756;9.400;2023-02-18T15:08:55;9.50;81.50
9057;DHT22;4563;54.756;9.400;2023-02-18T15:11:29;9.50;81.40
9057;DHT22;4563;54.756;9.400;2023-02-18T15:14:00;9.50;81.30
9057;DHT22;4563;54.756;9.400;2023-02-18T15:16:30;9.50;81.30
9057;DHT22;4563;54.756;9.400;2023-02-18T15:19:00;9.60;81.20
9057;DHT22;4563;54.756;9.400;2023-02-18T15:21:29;9.60;81.10
9057;DHT22;4563;54.756;9.400;2023-02-18T15:24:04;9.60;80.90
9057;DHT22;4563;54.756;9.400;2023-02-18T15:26:32;9.60;80.90
9057;DHT22;4563;54.756;9.400;2023-02-18T15:29:02;9.60;80.70
9057;DHT22;4563;54.756;9.400;2023-02-18T15:31:35;9.60;80.50
9057;DHT22;4563;54.756;9.400;2023-02-18T15:34:02;9.60;80.40
9057;DHT22;4563;54.756;9.400;2023-02-18T15:36:34;9.60;81.10
9057;DHT22;4563;54.756;9.400;2023-02-18T15:39:02;9.60;80.30
9057;DHT22;4563;54.756;9.400;2023-02-18T15:41:30;9.60;80.90
9057;DHT22;4563;54.756;9.400;2023-02-18T15:44:01;9.60;80.00
9057;DHT22;4563;54.756;9.400;2023-02-18T15:46:30;9.60;80.00
9057;DHT22;4563;54.756;9.400;2023-02-18T15:48:58;9.60;79.90
9057;DHT22;4563;54.756;9.400;2023-02-18T15:51:28;9.60;79.90
9057;DHT22;4563;54.756;9.400;2023-02-18T15:53:58;9.60;79.90
9057;DHT22;4563;54.756;9.400;2023-02-18T15:56:30;9.50;79.60
9057;DHT22;4563;54.756;9.400;2023-02-18T15:59:08;9.50;79.70
9057;DHT22;4563;54.756;9.400;2023-02-18T16:01:35;9.50;79.70
9057;DHT22;4563;54.756;9.400;2023-02-18T16:04:05;9.40;79.60
9057;DHT22;4563;54.756;9.400;2023-02-18T16:06:37;9.40;79.50
9057;DHT22;4563;54.756;9.400;2023-02-18T16:09:12;9.40;79.40
9057;DHT22;4563;54.756;9.400;2023-02-18T16:11:45;9.30;80.20
9057;DHT22;4563;54.756;9.400;2023-02-18T16:14:28;9.30;79.40
9057;DHT22;4563;54.756;9.400;2023-02-18T16:17:08;9.20;79.40
9057;DHT22;4563;54.756;9.400;2023-02-18T16:19:40;9.20;79.40
9057;DHT22;4563;54.756;9.400;2023-02-18T16:22:24;9.20;79.40
9057;DHT22;4563;54.756;9.400;2023-02-18T16:24:55;9.10;79.40
9057;DHT22;4563;54.756;9.400;2023-02-18T16:27:30;9.10;79.20
9057;DHT22;4563;54.756;9.400;2023-02-18T16:30:00;9.00;79.10
9057;DHT22;4563;54.756;9.400;2023-02-18T16:32:28;9.00;79.10
9057;DHT22;4563;54.756;9.400;2023-02-18T16:34:55;9.00;79.10
9057;DHT22;4563;54.756;9.400;2023-02-18T16:37:22;8.90;79.00
9057;DHT22;4563;54.756;9.400;2023-02-18T16:40:22;8.90;79.10
9057;DHT22;4563;54.756;9.400;2023-02-18T16:42:51;8.80;79.10
9057;DHT22;4563;54.756;9.400;2023-02-18T16:45:18;8.80;79.20
9057;DHT22;4563;54.756;9.400;2023-02-18T16:47:47;8.70;79.20
9057;DHT22;4563;54.756;9.400;2023-02-18T16:50:18;8.70;79.10
9057;DHT22;4563;54.756;9.400;2023-02-18T16:52:45;8.70;79.20